Tin City LRRS

About
Name: Tin City LRRS
Identifier:  TNC/PATC
Owner:  U.S. Air Force
Public/Private:  Military
Local Time:  20. Aug 05:51 AKDT
Description: Tin City LRRS Airport is a military airport located one nautical mile east of the historic location of Tin City, in the Nome Census Area of the U.S. state of Alaska. It is owned by the U.S. Air Force.
Source: Wikipedia
Location
Runways
Identifier Length (m/ft) Surface
16/34 4,700/4,700 Gravel
Flights per Day
0 flights
Distance: 134km (83mi)
Punctuality
60% (0 flights per day delayed)
Delay Average: 12 minutes
Current Weather
 10 C (Humidity: 93%)
  15kt (27km/h / 17mph) from 40°
  Overcast at 700 feet (213 meter)
  16km (10 mi.)
 METAR PATC 201255Z AUTO 04015KT 10SM OVC007 10/09 A3003 RMK AO2 SLP170 T00960085

Current Flights

Departures
Number Departure To Airline
Arrivals
Number Arrival From Airline
 8E890 13:05 +1108  Nome Bering Air

Current Delays

Departures
N/A
Arrivals
N/A

Destinations

Top Destinations
Airport Flights
per week
Seats
per week
  Nome (OME) 1 - 0 0
  Shaktoolik (SKK) 0 - 0 0

Airlines & Planes

Top Airlines
Airline Flights
per Day
Seats
per Day
Bering Air 0 -
Top Plane Types
Model Flights Seats
Beech B200 Super King Air 0.2/day - 0